sensor_id;sensor_type;location;lat;lon;timestamp;temperature;humidity
23579;DHT22;11967;50.852;4.400;2022-12-10T00:03:36;5.30;99.90
23579;DHT22;11967;50.852;4.400;2022-12-10T00:06:04;5.40;99.90
23579;DHT22;11967;50.852;4.400;2022-12-10T00:08:30;5.40;99.90
23579;DHT22;11967;50.852;4.400;2022-12-10T00:10:56;5.30;99.90
23579;DHT22;11967;50.852;4.400;2022-12-10T00:13:22;5.40;99.90
23579;DHT22;11967;50.852;4.400;2022-12-10T00:15:47;5.30;99.90
23579;DHT22;11967;50.852;4.400;2022-12-10T00:18:13;5.30;99.90
23579;DHT22;11967;50.852;4.400;2022-12-10T00:20:39;5.00;99.90
23579;DHT22;11967;50.852;4.400;2022-12-10T00:23:04;5.10;99.90
23579;DHT22;11967;50.852;4.400;2022-12-10T00:25:32;5.00;99.90
23579;DHT22;11967;50.852;4.400;2022-12-10T00:27:57;5.10;99.90
23579;DHT22;11967;50.852;4.400;2022-12-10T00:30:26;5.10;99.90
23579;DHT22;11967;50.852;4.400;2022-12-10T00:32:52;5.20;99.90
23579;DHT22;11967;50.852;4.400;2022-12-10T00:35:17;5.30;99.90
23579;DHT22;11967;50.852;4.400;2022-12-10T00:37:43;5.40;99.90
23579;DHT22;11967;50.852;4.400;2022-12-10T00:40:09;5.50;99.90
23579;DHT22;11967;50.852;4.400;2022-12-10T00:42:37;5.50;99.90
23579;DHT22;11967;50.852;4.400;2022-12-10T00:45:04;5.50;99.90
23579;DHT22;11967;50.852;4.400;2022-12-10T00:47:30;5.40;99.90
23579;DHT22;11967;50.852;4.400;2022-12-10T00:49:56;5.30;99.90
23579;DHT22;11967;50.852;4.400;2022-12-10T00:52:21;5.30;99.90
23579;DHT22;11967;50.852;4.400;2022-12-10T00:54:47;5.20;99.90
23579;DHT22;11967;50.852;4.400;2022-12-10T00:57:12;5.10;99.90
23579;DHT22;11967;50.852;4.400;2022-12-10T00:59:38;5.10;99.90
23579;DHT22;11967;50.852;4.400;2022-12-10T01:02:04;5.00;99.90
23579;DHT22;11967;50.852;4.400;2022-12-10T01:04:29;5.20;99.90
23579;DHT22;11967;50.852;4.400;2022-12-10T01:06:55;5.10;99.90
23579;DHT22;11967;50.852;4.400;2022-12-10T01:09:24;5.00;99.90
23579;DHT22;11967;50.852;4.400;2022-12-10T01:11:50;4.90;99.90
23579;DHT22;11967;50.852;4.400;2022-12-10T01:14:20;4.90;99.90
23579;DHT22;11967;50.852;4.400;2022-12-10T01:16:46;4.80;99.90
23579;DHT22;11967;50.852;4.400;2022-12-10T01:19:12;4.80;99.90
23579;DHT22;11967;50.852;4.400;2022-12-10T01:21:37;5.00;99.90
23579;DHT22;11967;50.852;4.400;2022-12-10T01:24:03;5.00;99.90
23579;DHT22;11967;50.852;4.400;2022-12-10T01:26:32;4.80;99.90
23579;DHT22;11967;50.852;4.400;2022-12-10T01:28:59;4.60;99.90
23579;DHT22;11967;50.852;4.400;2022-12-10T01:31:31;4.60;99.90
23579;DHT22;11967;50.852;4.400;2022-12-10T01:33:57;4.60;99.90
23579;DHT22;11967;50.852;4.400;2022-12-10T01:36:38;4.70;99.90
23579;DHT22;11967;50.852;4.400;2022-12-10T01:39:07;4.60;99.90
23579;DHT22;11967;50.852;4.400;2022-12-10T01:47:07;4.50;99.90
23579;DHT22;11967;50.852;4.400;2022-12-10T01:49:39;4.50;99.90
23579;DHT22;11967;50.852;4.400;2022-12-10T01:52:08;4.40;99.90
23579;DHT22;11967;50.852;4.400;2022-12-10T01:54:42;4.50;99.90
23579;DHT22;11967;50.852;4.400;2022-12-10T01:57:10;4.60;99.90
23579;DHT22;11967;50.852;4.400;2022-12-10T01:59:38;4.60;99.90
23579;DHT22;11967;50.852;4.400;2022-12-10T02:05:05;4.40;99.90
23579;DHT22;11967;50.852;4.400;2022-12-10T02:15:29;4.60;99.90
23579;DHT22;11967;50.852;4.400;2022-12-10T02:18:00;4.60;99.90
23579;DHT22;11967;50.852;4.400;2022-12-10T02:20:43;4.70;99.90
23579;DHT22;11967;50.852;4.400;2022-12-10T02:23:30;4.80;99.90
23579;DHT22;11967;50.852;4.400;2022-12-10T02:26:24;4.60;99.90
23579;DHT22;11967;50.852;4.400;2022-12-10T02:29:11;4.50;99.90
23579;DHT22;11967;50.852;4.400;2022-12-10T02:31:40;4.50;99.90
23579;DHT22;11967;50.852;4.400;2022-12-10T02:34:08;4.50;99.90
23579;DHT22;11967;50.852;4.400;2022-12-10T02:36:38;4.50;99.90
23579;DHT22;11967;50.852;4.400;2022-12-10T02:39:08;4.60;99.90
23579;DHT22;11967;50.852;4.400;2022-12-10T02:41:38;4.70;99.90
23579;DHT22;11967;50.852;4.400;2022-12-10T02:44:09;4.70;99.90
23579;DHT22;11967;50.852;4.400;2022-12-10T02:46:37;4.80;99.90
23579;DHT22;11967;50.852;4.400;2022-12-10T02:49:14;4.70;99.90
23579;DHT22;11967;50.852;4.400;2022-12-10T02:51:43;4.80;99.90
23579;DHT22;11967;50.852;4.400;2022-12-10T02:54:33;4.60;99.90
23579;DHT22;11967;50.852;4.400;2022-12-10T02:57:01;4.70;99.90
23579;DHT22;11967;50.852;4.400;2022-12-10T02:59:38;4.40;99.90
23579;DHT22;11967;50.852;4.400;2022-12-10T03:02:21;4.40;99.90
23579;DHT22;11967;50.852;4.400;2022-12-10T03:05:05;4.50;99.90
23579;DHT22;11967;50.852;4.400;2022-12-10T03:07:42;4.80;99.90
23579;DHT22;11967;50.852;4.400;2022-12-10T03:10:41;4.80;99.90
23579;DHT22;11967;50.852;4.400;2022-12-10T03:13:11;4.70;99.90
23579;DHT22;11967;50.852;4.400;2022-12-10T03:15:39;4.80;99.90
23579;DHT22;11967;50.852;4.400;2022-12-10T03:18:07;4.80;99.90
23579;DHT22;11967;50.852;4.400;2022-12-10T03:20:38;4.80;99.90
23579;DHT22;11967;50.852;4.400;2022-12-10T03:23:05;4.90;99.90
23579;DHT22;11967;50.852;4.400;2022-12-10T03:29:01;4.80;99.90
23579;DHT22;11967;50.852;4.400;2022-12-10T03:31:29;4.90;99.90
23579;DHT22;11967;50.852;4.400;2022-12-10T03:33:56;5.00;99.90
23579;DHT22;11967;50.852;4.400;2022-12-10T03:36:22;5.10;99.90
23579;DHT22;11967;50.852;4.400;2022-12-10T03:38:49;5.20;99.90
23579;DHT22;11967;50.852;4.400;2022-12-10T03:41:15;5.20;99.90
23579;DHT22;11967;50.852;4.400;2022-12-10T03:43:56;5.10;99.90
23579;DHT22;11967;50.852;4.400;2022-12-10T03:46:23;5.00;99.90
23579;DHT22;11967;50.852;4.400;2022-12-10T03:48:49;5.00;99.90
23579;DHT22;11967;50.852;4.400;2022-12-10T03:51:15;4.90;99.90
23579;DHT22;11967;50.852;4.400;2022-12-10T03:53:41;4.80;99.90
23579;DHT22;11967;50.852;4.400;2022-12-10T03:56:06;4.90;99.90
23579;DHT22;11967;50.852;4.400;2022-12-10T03:58:32;4.80;99.90
23579;DHT22;11967;50.852;4.400;2022-12-10T04:00:58;4.90;99.90
23579;DHT22;11967;50.852;4.400;2022-12-10T04:03:24;5.00;99.90
23579;DHT22;11967;50.852;4.400;2022-12-10T04:05:49;4.90;99.90
23579;DHT22;11967;50.852;4.400;2022-12-10T04:08:15;4.90;99.90
23579;DHT22;11967;50.852;4.400;2022-12-10T04:10:41;5.00;99.90
23579;DHT22;11967;50.852;4.400;2022-12-10T04:13:06;5.00;99.90
23579;DHT22;11967;50.852;4.400;2022-12-10T04:15:50;4.90;99.90
23579;DHT22;11967;50.852;4.400;2022-12-10T04:18:34;4.90;99.90
23579;DHT22;11967;50.852;4.400;2022-12-10T04:21:00;4.80;99.90
23579;DHT22;11967;50.852;4.400;2022-12-10T04:23:44;4.90;99.90
23579;DHT22;11967;50.852;4.400;2022-12-10T04:26:28;4.90;99.90
23579;DHT22;11967;50.852;4.400;2022-12-10T04:29:12;4.80;99.90
23579;DHT22;11967;50.852;4.400;2022-12-10T04:31:38;4.80;99.90
23579;DHT22;11967;50.852;4.400;2022-12-10T04:34:03;4.80;99.90
23579;DHT22;11967;50.852;4.400;2022-12-10T04:36:29;4.70;99.90
23579;DHT22;11967;50.852;4.400;2022-12-10T04:38:55;4.80;99.90
23579;DHT22;11967;50.852;4.400;2022-12-10T04:41:20;4.80;99.90
23579;DHT22;11967;50.852;4.400;2022-12-10T04:43:46;4.90;99.90
23579;DHT22;11967;50.852;4.400;2022-12-10T04:46:11;4.80;99.90
23579;DHT22;11967;50.852;4.400;2022-12-10T04:48:37;4.80;99.90
23579;DHT22;11967;50.852;4.400;2022-12-10T04:51:03;4.90;99.90
23579;DHT22;11967;50.852;4.400;2022-12-10T04:53:47;4.90;99.90
23579;DHT22;11967;50.852;4.400;2022-12-10T04:56:13;4.80;99.90
23579;DHT22;11967;50.852;4.400;2022-12-10T04:58:39;4.70;99.90
23579;DHT22;11967;50.852;4.400;2022-12-10T05:01:07;4.70;99.90
23579;DHT22;11967;50.852;4.400;2022-12-10T05:03:34;4.80;99.90
23579;DHT22;11967;50.852;4.400;2022-12-10T05:06:05;4.80;99.90
23579;DHT22;11967;50.852;4.400;2022-12-10T05:08:31;4.60;99.90
23579;DHT22;11967;50.852;4.400;2022-12-10T05:11:09;4.50;99.90
23579;DHT22;11967;50.852;4.400;2022-12-10T05:13:36;4.40;99.90
23579;DHT22;11967;50.852;4.400;2022-12-10T05:16:03;4.30;99.90
23579;DHT22;11967;50.852;4.400;2022-12-10T05:18:29;4.40;99.90
23579;DHT22;11967;50.852;4.400;2022-12-10T05:21:01;4.40;99.90
23579;DHT22;11967;50.852;4.400;2022-12-10T05:23:27;4.40;99.90
23579;DHT22;11967;50.852;4.400;2022-12-10T05:26:11;4.40;99.90
23579;DHT22;11967;50.852;4.400;2022-12-10T05:28:46;4.60;99.90
23579;DHT22;11967;50.852;4.400;2022-12-10T05:31:30;4.60;99.90
23579;DHT22;11967;50.852;4.400;2022-12-10T05:33:57;4.50;99.90
23579;DHT22;11967;50.852;4.400;2022-12-10T05:36:25;4.60;99.90
23579;DHT22;11967;50.852;4.400;2022-12-10T05:38:52;4.60;99.90
23579;DHT22;11967;50.852;4.400;2022-12-10T05:41:21;4.70;99.90
23579;DHT22;11967;50.852;4.400;2022-12-10T05:43:51;4.80;99.90
23579;DHT22;11967;50.852;4.400;2022-12-10T05:46:27;4.70;99.90
23579;DHT22;11967;50.852;4.400;2022-12-10T05:48:53;4.60;99.90
23579;DHT22;11967;50.852;4.400;2022-12-10T05:51:21;4.60;99.90
23579;DHT22;11967;50.852;4.400;2022-12-10T05:53:47;4.70;99.90
23579;DHT22;11967;50.852;4.400;2022-12-10T05:56:15;4.70;99.90
23579;DHT22;11967;50.852;4.400;2022-12-10T06:05:26;4.60;99.90
23579;DHT22;11967;50.852;4.400;2022-12-10T06:07:52;4.60;99.90
23579;DHT22;11967;50.852;4.400;2022-12-10T06:10:17;4.60;99.90
23579;DHT22;11967;50.852;4.400;2022-12-10T06:12:43;4.50;99.90
23579;DHT22;11967;50.852;4.400;2022-12-10T06:15:09;4.50;99.90
23579;DHT22;11967;50.852;4.400;2022-12-10T06:17:34;4.40;99.90
23579;DHT22;11967;50.852;4.400;2022-12-10T06:20:01;4.40;99.90
23579;DHT22;11967;50.852;4.400;2022-12-10T06:22:27;4.50;99.90
23579;DHT22;11967;50.852;4.400;2022-12-10T06:24:53;4.50;99.90
23579;DHT22;11967;50.852;4.400;2022-12-10T06:27:18;4.50;99.90
23579;DHT22;11967;50.852;4.400;2022-12-10T06:29:44;4.40;99.90
23579;DHT22;11967;50.852;4.400;2022-12-10T06:32:10;4.50;99.90
23579;DHT22;11967;50.852;4.400;2022-12-10T06:34:35;4.50;99.90
23579;DHT22;11967;50.852;4.400;2022-12-10T06:37:01;4.40;99.90
23579;DHT22;11967;50.852;4.400;2022-12-10T06:39:27;4.40;99.90
23579;DHT22;11967;50.852;4.400;2022-12-10T06:41:52;4.40;99.90
23579;DHT22;11967;50.852;4.400;2022-12-10T06:44:18;4.40;99.90
23579;DHT22;11967;50.852;4.400;2022-12-10T06:46:43;4.50;99.90
23579;DHT22;11967;50.852;4.400;2022-12-10T06:49:09;4.50;99.90
23579;DHT22;11967;50.852;4.400;2022-12-10T06:51:35;4.50;99.90
23579;DHT22;11967;50.852;4.400;2022-12-10T06:54:00;4.60;99.90
23579;DHT22;11967;50.852;4.400;2022-12-10T06:56:26;4.70;99.90
23579;DHT22;11967;50.852;4.400;2022-12-10T06:58:52;4.50;99.90
23579;DHT22;11967;50.852;4.400;2022-12-10T07:01:23;4.50;99.90
23579;DHT22;11967;50.852;4.400;2022-12-10T07:03:52;4.40;99.90
23579;DHT22;11967;50.852;4.400;2022-12-10T07:06:19;4.40;99.90
23579;DHT22;11967;50.852;4.400;2022-12-10T07:08:45;4.30;99.90
23579;DHT22;11967;50.852;4.400;2022-12-10T07:11:14;4.00;99.90
23579;DHT22;11967;50.852;4.400;2022-12-10T07:13:40;4.00;99.90
23579;DHT22;11967;50.852;4.400;2022-12-10T07:16:32;4.20;99.90
23579;DHT22;11967;50.852;4.400;2022-12-10T07:19:00;4.10;99.90
23579;DHT22;11967;50.852;4.400;2022-12-10T07:21:31;4.10;99.90
23579;DHT22;11967;50.852;4.400;2022-12-10T07:24:00;4.20;99.90
23579;DHT22;11967;50.852;4.400;2022-12-10T07:26:32;4.30;99.90
23579;DHT22;11967;50.852;4.400;2022-12-10T07:28:59;4.30;99.90
23579;DHT22;11967;50.852;4.400;2022-12-10T07:31:25;4.20;99.90
23579;DHT22;11967;50.852;4.400;2022-12-10T07:33:52;4.30;99.90
23579;DHT22;11967;50.852;4.400;2022-12-10T07:36:19;4.30;99.90
23579;DHT22;11967;50.852;4.400;2022-12-10T07:38:46;4.40;99.90
23579;DHT22;11967;50.852;4.400;2022-12-10T07:41:12;4.30;99.90
23579;DHT22;11967;50.852;4.400;2022-12-10T07:43:40;4.30;99.90
23579;DHT22;11967;50.852;4.400;2022-12-10T07:46:08;4.00;99.90
23579;DHT22;11967;50.852;4.400;2022-12-10T07:48:35;3.80;99.90
23579;DHT22;11967;50.852;4.400;2022-12-10T07:51:01;3.80;99.90
23579;DHT22;11967;50.852;4.400;2022-12-10T07:53:27;4.00;99.90
23579;DHT22;11967;50.852;4.400;2022-12-10T07:55:52;4.20;99.90
23579;DHT22;11967;50.852;4.400;2022-12-10T07:58:18;4.20;99.90
23579;DHT22;11967;50.852;4.400;2022-12-10T08:00:44;4.20;99.90
23579;DHT22;11967;50.852;4.400;2022-12-10T08:03:09;4.40;99.90
23579;DHT22;11967;50.852;4.400;2022-12-10T08:05:35;4.40;99.90
23579;DHT22;11967;50.852;4.400;2022-12-10T08:08:01;4.20;99.90
23579;DHT22;11967;50.852;4.400;2022-12-10T08:10:27;4.30;99.90
23579;DHT22;11967;50.852;4.400;2022-12-10T08:12:53;4.30;99.90
23579;DHT22;11967;50.852;4.400;2022-12-10T08:15:18;4.20;99.90
23579;DHT22;11967;50.852;4.400;2022-12-10T08:17:44;4.10;99.90
23579;DHT22;11967;50.852;4.400;2022-12-10T08:20:10;4.00;99.90
23579;DHT22;11967;50.852;4.400;2022-12-10T08:22:36;3.90;99.90
23579;DHT22;11967;50.852;4.400;2022-12-10T08:25:02;3.90;99.90
23579;DHT22;11967;50.852;4.400;2022-12-10T08:27:27;4.10;99.90
23579;DHT22;11967;50.852;4.400;2022-12-10T08:29:53;4.10;99.90
23579;DHT22;11967;50.852;4.400;2022-12-10T08:32:19;4.10;99.90
23579;DHT22;11967;50.852;4.400;2022-12-10T08:34:44;4.10;99.90
23579;DHT22;11967;50.852;4.400;2022-12-10T08:37:17;4.00;99.90
23579;DHT22;11967;50.852;4.400;2022-12-10T08:39:43;4.10;99.90
23579;DHT22;11967;50.852;4.400;2022-12-10T08:42:09;4.00;99.90
23579;DHT22;11967;50.852;4.400;2022-12-10T08:44:34;3.90;99.90
23579;DHT22;11967;50.852;4.400;2022-12-10T08:47:00;3.90;99.90
23579;DHT22;11967;50.852;4.400;2022-12-10T08:49:25;4.00;99.90
23579;DHT22;11967;50.852;4.400;2022-12-10T08:51:51;4.00;99.90
23579;DHT22;11967;50.852;4.400;2022-12-10T08:54:17;4.10;99.90
23579;DHT22;11967;50.852;4.400;2022-12-10T08:56:42;4.20;99.90
23579;DHT22;11967;50.852;4.400;2022-12-10T08:59:08;4.20;99.90
23579;DHT22;11967;50.852;4.400;2022-12-10T09:01:34;4.00;99.90
23579;DHT22;11967;50.852;4.400;2022-12-10T09:03:59;4.00;99.90
23579;DHT22;11967;50.852;4.400;2022-12-10T09:06:26;4.20;99.90
23579;DHT22;11967;50.852;4.400;2022-12-10T09:08:53;4.30;99.90
23579;DHT22;11967;50.852;4.400;2022-12-10T09:13:46;4.00;99.90
23579;DHT22;11967;50.852;4.400;2022-12-10T09:16:12;3.90;99.90
23579;DHT22;11967;50.852;4.400;2022-12-10T09:18:37;3.90;99.90
23579;DHT22;11967;50.852;4.400;2022-12-10T09:21:08;4.00;99.90
23579;DHT22;11967;50.852;4.400;2022-12-10T09:23:34;3.90;99.90
23579;DHT22;11967;50.852;4.400;2022-12-10T09:26:00;3.90;99.90
23579;DHT22;11967;50.852;4.400;2022-12-10T09:28:26;3.90;99.90
23579;DHT22;11967;50.852;4.400;2022-12-10T09:30:59;3.90;99.90
23579;DHT22;11967;50.852;4.400;2022-12-10T09:33:26;4.10;99.90
23579;DHT22;11967;50.852;4.400;2022-12-10T09:35:52;4.10;99.90
23579;DHT22;11967;50.852;4.400;2022-12-10T09:38:18;4.40;99.90
23579;DHT22;11967;50.852;4.400;2022-12-10T09:41:01;4.20;99.90
23579;DHT22;11967;50.852;4.400;2022-12-10T09:43:47;4.10;99.90
23579;DHT22;11967;50.852;4.400;2022-12-10T09:51:57;4.20;99.90
23579;DHT22;11967;50.852;4.400;2022-12-10T09:54:52;4.20;99.90
23579;DHT22;11967;50.852;4.400;2022-12-10T09:57:28;4.10;99.90
23579;DHT22;11967;50.852;4.400;2022-12-10T09:59:56;4.10;99.90
23579;DHT22;11967;50.852;4.400;2022-12-10T10:02:31;4.20;99.90
23579;DHT22;11967;50.852;4.400;2022-12-10T10:07:35;4.40;99.90
23579;DHT22;11967;50.852;4.400;2022-12-10T10:10:13;4.30;99.90
23579;DHT22;11967;50.852;4.400;2022-12-10T10:12:43;4.20;99.90
23579;DHT22;11967;50.852;4.400;2022-12-10T10:15:30;4.00;99.90
23579;DHT22;11967;50.852;4.400;2022-12-10T10:18:09;4.10;99.90
23579;DHT22;11967;50.852;4.400;2022-12-10T10:20:38;4.10;99.90
23579;DHT22;11967;50.852;4.400;2022-12-10T10:23:05;4.10;99.90
23579;DHT22;11967;50.852;4.400;2022-12-10T10:25:30;4.00;99.90
23579;DHT22;11967;50.852;4.400;2022-12-10T10:27:56;4.10;99.90
23579;DHT22;11967;50.852;4.400;2022-12-10T10:30:24;4.00;99.90
23579;DHT22;11967;50.852;4.400;2022-12-10T10:32:56;4.00;99.90
23579;DHT22;11967;50.852;4.400;2022-12-10T10:35:27;4.00;99.90
23579;DHT22;11967;50.852;4.400;2022-12-10T10:38:06;4.10;99.90
23579;DHT22;11967;50.852;4.400;2022-12-10T10:40:43;4.00;99.90
23579;DHT22;11967;50.852;4.400;2022-12-10T10:46:42;4.20;99.90
23579;DHT22;11967;50.852;4.400;2022-12-10T10:49:29;4.30;99.90
23579;DHT22;11967;50.852;4.400;2022-12-10T10:52:05;4.30;99.90
23579;DHT22;11967;50.852;4.400;2022-12-10T10:54:34;4.40;99.90
23579;DHT22;11967;50.852;4.400;2022-12-10T10:57:11;4.50;99.90
23579;DHT22;11967;50.852;4.400;2022-12-10T10:59:39;4.40;99.90
23579;DHT22;11967;50.852;4.400;2022-12-10T11:04:51;4.50;99.90
23579;DHT22;11967;50.852;4.400;2022-12-10T11:07:33;4.50;99.90
23579;DHT22;11967;50.852;4.400;2022-12-10T11:09:59;4.50;99.90
23579;DHT22;11967;50.852;4.400;2022-12-10T11:12:35;4.50;99.90
23579;DHT22;11967;50.852;4.400;2022-12-10T11:15:01;4.50;99.90
23579;DHT22;11967;50.852;4.400;2022-12-10T11:17:27;4.50;99.90
23579;DHT22;11967;50.852;4.400;2022-12-10T11:20:23;4.60;99.90
23579;DHT22;11967;50.852;4.400;2022-12-10T11:25:17;4.50;99.90
23579;DHT22;11967;50.852;4.400;2022-12-10T11:30:20;5.00;99.90
23579;DHT22;11967;50.852;4.400;2022-12-10T11:38:21;4.70;99.90
23579;DHT22;11967;50.852;4.400;2022-12-10T11:51:40;4.70;99.90
23579;DHT22;11967;50.852;4.400;2022-12-10T11:54:11;4.70;99.90
23579;DHT22;11967;50.852;4.400;2022-12-10T11:56:45;4.80;99.90
23579;DHT22;11967;50.852;4.400;2022-12-10T11:59:23;4.90;99.90
23579;DHT22;11967;50.852;4.400;2022-12-10T12:08:23;4.90;99.90
23579;DHT22;11967;50.852;4.400;2022-12-10T12:10:48;4.80;99.90
23579;DHT22;11967;50.852;4.400;2022-12-10T12:16:16;4.80;99.90
23579;DHT22;11967;50.852;4.400;2022-12-10T12:18:58;4.80;99.90
23579;DHT22;11967;50.852;4.400;2022-12-10T12:21:27;5.00;99.90
23579;DHT22;11967;50.852;4.400;2022-12-10T12:24:20;5.20;99.90
23579;DHT22;11967;50.852;4.400;2022-12-10T12:26:54;5.20;99.90
23579;DHT22;11967;50.852;4.400;2022-12-10T12:29:29;5.20;99.90
23579;DHT22;11967;50.852;4.400;2022-12-10T12:32:08;5.30;99.90
23579;DHT22;11967;50.852;4.400;2022-12-10T12:37:11;5.10;99.90
23579;DHT22;11967;50.852;4.400;2022-12-10T12:42:42;5.10;99.90
23579;DHT22;11967;50.852;4.400;2022-12-10T12:50:48;5.30;99.90
23579;DHT22;11967;50.852;4.400;2022-12-10T12:53:19;5.20;99.90
23579;DHT22;11967;50.852;4.400;2022-12-10T13:01:59;5.30;99.90
23579;DHT22;11967;50.852;4.400;2022-12-10T13:04:27;5.30;99.90
23579;DHT22;11967;50.852;4.400;2022-12-10T13:10:42;5.40;99.90
23579;DHT22;11967;50.852;4.400;2022-12-10T13:15:34;5.20;99.90
23579;DHT22;11967;50.852;4.400;2022-12-10T13:28:31;5.20;99.90
23579;DHT22;11967;50.852;4.400;2022-12-10T13:31:07;5.10;99.90
23579;DHT22;11967;50.852;4.400;2022-12-10T13:36:12;5.10;99.90
23579;DHT22;11967;50.852;4.400;2022-12-10T13:39:10;5.10;99.90
23579;DHT22;11967;50.852;4.400;2022-12-10T13:41:43;5.10;99.90
23579;DHT22;11967;50.852;4.400;2022-12-10T13:47:51;5.00;99.90
23579;DHT22;11967;50.852;4.400;2022-12-10T13:50:19;5.10;99.90
23579;DHT22;11967;50.852;4.400;2022-12-10T14:01:46;5.10;99.90
23579;DHT22;11967;50.852;4.400;2022-12-10T14:04:30;5.20;99.90
23579;DHT22;11967;50.852;4.400;2022-12-10T14:07:00;5.30;99.90
23579;DHT22;11967;50.852;4.400;2022-12-10T14:09:31;5.40;99.90
23579;DHT22;11967;50.852;4.400;2022-12-10T14:12:17;5.30;99.90
23579;DHT22;11967;50.852;4.400;2022-12-10T14:14:47;5.20;99.90
23579;DHT22;11967;50.852;4.400;2022-12-10T14:17:18;5.20;99.90
23579;DHT22;11967;50.852;4.400;2022-12-10T14:19:48;5.10;99.90
23579;DHT22;11967;50.852;4.400;2022-12-10T14:22:18;5.20;99.90
23579;DHT22;11967;50.852;4.400;2022-12-10T14:24:43;5.30;99.90
23579;DHT22;11967;50.852;4.400;2022-12-10T14:27:24;5.40;99.90
23579;DHT22;11967;50.852;4.400;2022-12-10T14:30:00;5.30;99.90
23579;DHT22;11967;50.852;4.400;2022-12-10T14:32:32;5.30;99.90
23579;DHT22;11967;50.852;4.400;2022-12-10T14:35:00;5.20;99.90
23579;DHT22;11967;50.852;4.400;2022-12-10T14:37:33;5.20;99.90
23579;DHT22;11967;50.852;4.400;2022-12-10T14:40:00;5.20;99.90
23579;DHT22;11967;50.852;4.400;2022-12-10T14:42:27;5.30;99.90
23579;DHT22;11967;50.852;4.400;2022-12-10T14:44:59;5.30;99.90
23579;DHT22;11967;50.852;4.400;2022-12-10T14:47:25;5.30;99.90
23579;DHT22;11967;50.852;4.400;2022-12-10T14:49:53;5.30;99.90
23579;DHT22;11967;50.852;4.400;2022-12-10T14:52:25;5.30;99.90
23579;DHT22;11967;50.852;4.400;2022-12-10T14:54:57;5.40;99.90
23579;DHT22;11967;50.852;4.400;2022-12-10T14:57:37;5.40;99.90
23579;DHT22;11967;50.852;4.400;2022-12-10T15:00:20;5.40;99.90
23579;DHT22;11967;50.852;4.400;2022-12-10T15:02:52;5.30;99.90
23579;DHT22;11967;50.852;4.400;2022-12-10T15:05:21;5.30;99.90
23579;DHT22;11967;50.852;4.400;2022-12-10T15:08:03;5.40;99.90
23579;DHT22;11967;50.852;4.400;2022-12-10T15:10:44;5.40;99.90
23579;DHT22;11967;50.852;4.400;2022-12-10T15:13:31;5.40;99.90
23579;DHT22;11967;50.852;4.400;2022-12-10T15:15:58;5.40;99.90
23579;DHT22;11967;50.852;4.400;2022-12-10T15:18:31;5.30;99.90
23579;DHT22;11967;50.852;4.400;2022-12-10T15:21:13;5.30;99.90
23579;DHT22;11967;50.852;4.400;2022-12-10T15:23:41;5.40;99.90
23579;DHT22;11967;50.852;4.400;2022-12-10T15:26:24;5.30;99.90
23579;DHT22;11967;50.852;4.400;2022-12-10T15:28:51;5.30;99.90
23579;DHT22;11967;50.852;4.400;2022-12-10T15:34:00;5.40;99.90
23579;DHT22;11967;50.852;4.400;2022-12-10T15:36:31;5.40;99.90
23579;DHT22;11967;50.852;4.400;2022-12-10T15:46:49;5.50;99.90
23579;DHT22;11967;50.852;4.400;2022-12-10T15:49:15;5.50;99.90
23579;DHT22;11967;50.852;4.400;2022-12-10T15:51:41;5.60;99.90
23579;DHT22;11967;50.852;4.400;2022-12-10T15:54:25;5.50;99.90
23579;DHT22;11967;50.852;4.400;2022-12-10T15:56:55;5.40;99.90
23579;DHT22;11967;50.852;4.400;2022-12-10T15:59:20;5.50;99.90
23579;DHT22;11967;50.852;4.400;2022-12-10T16:01:46;5.50;99.90
23579;DHT22;11967;50.852;4.400;2022-12-10T16:10:11;5.50;99.90
23579;DHT22;11967;50.852;4.400;2022-12-10T16:12:37;5.50;99.90
23579;DHT22;11967;50.852;4.400;2022-12-10T16:15:05;5.60;99.90
23579;DHT22;11967;50.852;4.400;2022-12-10T16:17:31;5.60;99.90
23579;DHT22;11967;50.852;4.400;2022-12-10T16:20:12;5.60;99.90
23579;DHT22;11967;50.852;4.400;2022-12-10T16:22:38;5.70;99.90
23579;DHT22;11967;50.852;4.400;2022-12-10T16:25:05;5.60;99.90
23579;DHT22;11967;50.852;4.400;2022-12-10T16:27:31;5.70;99.90
23579;DHT22;11967;50.852;4.400;2022-12-10T16:30:13;5.60;99.90
23579;DHT22;11967;50.852;4.400;2022-12-10T16:32:40;5.60;99.90
23579;DHT22;11967;50.852;4.400;2022-12-10T16:35:06;5.60;99.90
23579;DHT22;11967;50.852;4.400;2022-12-10T16:37:32;5.60;99.90
23579;DHT22;11967;50.852;4.400;2022-12-10T16:39:58;5.50;99.90
23579;DHT22;11967;50.852;4.400;2022-12-10T16:42:23;5.50;99.90
23579;DHT22;11967;50.852;4.400;2022-12-10T16:44:49;5.50;99.90
23579;DHT22;11967;50.852;4.400;2022-12-10T16:47:15;5.50;99.90
23579;DHT22;11967;50.852;4.400;2022-12-10T16:49:41;5.40;99.90
23579;DHT22;11967;50.852;4.400;2022-12-10T16:52:06;5.40;99.90
23579;DHT22;11967;50.852;4.400;2022-12-10T16:54:32;5.30;99.90
23579;DHT22;11967;50.852;4.400;2022-12-10T16:56:57;5.20;99.90
23579;DHT22;11967;50.852;4.400;2022-12-10T16:59:23;5.20;99.90
23579;DHT22;11967;50.852;4.400;2022-12-10T17:01:49;5.20;99.90
23579;DHT22;11967;50.852;4.400;2022-12-10T17:04:14;5.30;99.90
23579;DHT22;11967;50.852;4.400;2022-12-10T17:06:40;5.50;99.90
23579;DHT22;11967;50.852;4.400;2022-12-10T17:09:05;5.60;99.90
23579;DHT22;11967;50.852;4.400;2022-12-10T17:11:36;5.50;99.90
23579;DHT22;11967;50.852;4.400;2022-12-10T17:14:22;5.40;99.90
23579;DHT22;11967;50.852;4.400;2022-12-10T17:16:49;5.30;99.90
23579;DHT22;11967;50.852;4.400;2022-12-10T17:19:15;5.30;99.90
23579;DHT22;11967;50.852;4.400;2022-12-10T17:21:41;5.20;99.90
23579;DHT22;11967;50.852;4.400;2022-12-10T17:24:07;5.10;99.90
23579;DHT22;11967;50.852;4.400;2022-12-10T17:26:36;5.10;99.90
23579;DHT22;11967;50.852;4.400;2022-12-10T17:32:03;5.30;99.90
23579;DHT22;11967;50.852;4.400;2022-12-10T17:34:29;5.10;99.90
23579;DHT22;11967;50.852;4.400;2022-12-10T17:36:55;5.10;99.90
23579;DHT22;11967;50.852;4.400;2022-12-10T17:39:22;5.30;99.90
23579;DHT22;11967;50.852;4.400;2022-12-10T17:41:51;5.30;99.90
23579;DHT22;11967;50.852;4.400;2022-12-10T17:44:17;5.30;99.90
23579;DHT22;11967;50.852;4.400;2022-12-10T17:46:42;5.20;99.90
23579;DHT22;11967;50.852;4.400;2022-12-10T17:49:14;5.10;99.90
23579;DHT22;11967;50.852;4.400;2022-12-10T17:51:46;5.10;99.90
23579;DHT22;11967;50.852;4.400;2022-12-10T17:54:15;5.20;99.90
23579;DHT22;11967;50.852;4.400;2022-12-10T17:56:42;5.20;99.90
23579;DHT22;11967;50.852;4.400;2022-12-10T17:59:11;5.20;99.90
23579;DHT22;11967;50.852;4.400;2022-12-10T18:01:38;5.40;99.90
23579;DHT22;11967;50.852;4.400;2022-12-10T18:04:04;5.70;99.90
23579;DHT22;11967;50.852;4.400;2022-12-10T18:06:30;5.70;99.90
23579;DHT22;11967;50.852;4.400;2022-12-10T18:08:58;5.50;99.90
23579;DHT22;11967;50.852;4.400;2022-12-10T18:11:34;5.60;99.90
23579;DHT22;11967;50.852;4.400;2022-12-10T18:14:00;5.60;99.90
23579;DHT22;11967;50.852;4.400;2022-12-10T18:16:29;5.60;99.90
23579;DHT22;11967;50.852;4.400;2022-12-10T18:18:57;5.60;99.90
23579;DHT22;11967;50.852;4.400;2022-12-10T18:21:24;5.40;99.90
23579;DHT22;11967;50.852;4.400;2022-12-10T18:23:49;5.40;99.90
23579;DHT22;11967;50.852;4.400;2022-12-10T18:26:20;5.50;99.90